Halder, Wisconsin
Current Conditions -  °F | °C
As of 12:50 PM on Sunday 23 Nov 2014 (Local Time) from KCWA Reporting Station
Moderate Fog Moderate Fog  
Wind Chill: 43°   Ceiling: 200
Heat Index: 46°   Visibility: 0.12mi
Dew Point: 46°   Wind: 7mph
Humidity: 100%   Direction: 160°SSE
Pressure: 29.48"   Gusts: NA
Location:  44.7605°N, 89.5918°W
Report Text: KCWA 231850Z 16006KT 1/8SM FG OVC002 08/08 A2948
Loading
Personal Weather Stations






























Interactive Weather Map New forecast layout! Learn more

10-Day Weather Forecast

Advertisements
Track Severe Weather on mobile